Itapiuna, Brazil
Current Conditions -  °F | °C
As of 2:00 PM on Friday 24 Oct 2014 (Local Time) from SBFZ Reporting Station
Few Clouds Few Clouds  
Wind Chill: 84°   Ceiling: Unl
Heat Index: 87°   Visibility: 6mi
Dew Point: 68°   Wind: 20mph
Humidity: 58%   Direction: 90°E
Pressure: 29.83"   Gusts: NA
Location:  4.56°S, 38.92°W
Report Text: SBFZ 241700Z 09017KT 9999 FEW030 29/20 Q1010
Loading
Personal Weather Stations






























Interactive Weather Map
Tropical Storm Tracking
New forecast layout! Learn more

10-Day Weather Forecast

Advertisements
Track Severe Weather on mobile